TimeCDT,TemperatureF,Dew PointF,Humidity,Sea Level PressureIn,VisibilityMPH,Wind Direction,Wind SpeedMPH,Gust SpeedMPH,PrecipitationIn,Events,Conditions,WindDirDegrees,DateUTC
12:15 AM,65.5,60.4,84,29.98,10.0,North,3.5,-,N/A,,Clear,360,2013-08-08 05:15:00
12:35 AM,64.4,60.4,87,29.98,10.0,Calm,Calm,-,N/A,,Scattered Clouds,0,2013-08-08 05:35:00
12:55 AM,64.2,60.1,86,29.98,10.0,North,3.5,-,N/A,,Mostly Cloudy,350,2013-08-08 05:55:00
1:15 AM,63.0,59.9,90,29.98,10.0,Calm,Calm,-,N/A,,Scattered Clouds,0,2013-08-08 06:15:00
1:35 AM,62.8,60.4,92,29.99,10.0,Calm,Calm,-,N/A,,Mostly Cloudy,0,2013-08-08 06:35:00
1:55 AM,63.5,61.0,91,29.99,10.0,Calm,Calm,-,N/A,,Overcast,0,2013-08-08 06:55:00
2:15 AM,63.9,60.8,90,29.99,10.0,Calm,Calm,-,N/A,,Mostly Cloudy,0,2013-08-08 07:15:00
2:35 AM,63.1,60.4,91,29.99,10.0,Calm,Calm,-,N/A,,Scattered Clouds,0,2013-08-08 07:35:00
2:55 AM,63.3,60.6,91,29.99,10.0,NNW,4.6,-,N/A,,Mostly Cloudy,340,2013-08-08 07:55:00
3:15 AM,63.5,60.8,91,29.99,10.0,Calm,Calm,-,N/A,,Overcast,0,2013-08-08 08:15:00
3:35 AM,63.3,60.3,90,29.99,10.0,North,3.5,-,N/A,,Overcast,10,2013-08-08 08:35:00
3:55 AM,62.6,59.9,91,29.99,10.0,ENE,3.5,-,N/A,,Mostly Cloudy,60,2013-08-08 08:55:00
4:15 AM,61.7,59.0,91,29.98,10.0,NE,4.6,-,N/A,,Scattered Clouds,50,2013-08-08 09:15:00
4:35 AM,61.0,58.6,92,29.98,10.0,NNE,3.5,-,N/A,,Clear,30,2013-08-08 09:35:00
4:55 AM,61.7,59.0,91,29.98,10.0,North,4.6,-,N/A,,Clear,350,2013-08-08 09:55:00
5:15 AM,61.2,58.5,91,29.98,10.0,Calm,Calm,-,N/A,,Clear,0,2013-08-08 10:15:00
5:35 AM,60.8,58.1,91,29.97,10.0,North,3.5,-,N/A,,Clear,10,2013-08-08 10:35:00
5:55 AM,60.8,58.3,91,29.97,10.0,NNE,3.5,-,N/A,,Clear,20,2013-08-08 10:55:00
6:15 AM,61.0,58.5,91,29.98,10.0,NE,3.5,-,N/A,,Scattered Clouds,50,2013-08-08 11:15:00
6:35 AM,61.3,58.6,91,29.99,10.0,NNE,5.8,-,N/A,,Overcast,20,2013-08-08 11:35:00
6:55 AM,62.4,59.5,90,30.00,10.0,NE,3.5,-,N/A,,Scattered Clouds,50,2013-08-08 11:55:00
7:15 AM,62.8,59.9,90,30.00,10.0,Calm,Calm,-,N/A,,Mostly Cloudy,0,2013-08-08 12:15:00
7:35 AM,64.8,60.8,87,30.02,10.0,Calm,Calm,-,N/A,,Mostly Cloudy,0,2013-08-08 12:35:00
7:55 AM,65.7,61.7,87,30.03,10.0,ENE,3.5,-,N/A,,Overcast,60,2013-08-08 12:55:00
8:15 AM,67.5,61.7,82,30.03,10.0,ENE,6.9,-,N/A,,Mostly Cloudy,60,2013-08-08 13:15:00
8:35 AM,69.4,62.1,77,30.02,10.0,ENE,6.9,-,N/A,,Scattered Clouds,70,2013-08-08 13:35:00
8:55 AM,70.7,61.9,74,30.02,10.0,ENE,9.2,-,N/A,,Clear,70,2013-08-08 13:55:00
9:15 AM,71.6,62.1,72,30.02,10.0,East,6.9,-,N/A,,Clear,80,2013-08-08 14:15:00
9:35 AM,72.5,61.2,67,30.01,10.0,East,9.2,-,N/A,,Clear,90,2013-08-08 14:35:00
9:55 AM,73.6,61.9,67,30.02,10.0,East,6.9,-,N/A,,Clear,80,2013-08-08 14:55:00
10:15 AM,74.8,61.3,63,30.03,10.0,East,9.2,-,N/A,,Clear,90,2013-08-08 15:15:00
10:35 AM,75.9,61.7,61,30.04,10.0,ENE,5.8,-,N/A,,Clear,70,2013-08-08 15:35:00
10:55 AM,76.1,61.3,60,30.04,10.0,ENE,4.6,-,N/A,,Clear,70,2013-08-08 15:55:00
11:15 AM,77.2,60.6,56,30.04,10.0,East,9.2,-,N/A,,Clear,80,2013-08-08 16:15:00
11:35 AM,77.7,60.6,55,30.03,10.0,East,5.8,-,N/A,,Scattered Clouds,80,2013-08-08 16:35:00
11:55 AM,77.7,60.8,56,30.02,10.0,ENE,9.2,-,N/A,,Mostly Cloudy,70,2013-08-08 16:55:00
12:15 PM,77.9,61.5,57,30.02,10.0,East,5.8,-,N/A,,Scattered Clouds,90,2013-08-08 17:15:00
12:35 PM,79.3,61.5,54,30.02,10.0,East,8.1,-,N/A,,Scattered Clouds,80,2013-08-08 17:35:00
12:55 PM,80.4,60.4,50,30.01,10.0,East,8.1,-,N/A,,Scattered Clouds,100,2013-08-08 17:55:00
1:15 PM,79.9,59.2,49,30.00,10.0,ENE,4.6,-,N/A,,Clear,60,2013-08-08 18:15:00
1:35 PM,79.9,60.3,51,30.00,10.0,ENE,5.8,-,N/A,,Scattered Clouds,70,2013-08-08 18:35:00
1:55 PM,81.0,60.1,49,30.00,10.0,NE,6.9,-,N/A,,Scattered Clouds,40,2013-08-08 18:55:00
2:15 PM,77.9,58.5,51,30.00,10.0,Calm,Calm,-,N/A,,Clear,0,2013-08-08 19:15:00
2:35 PM,78.3,59.5,52,29.99,10.0,NE,4.6,-,N/A,,Mostly Cloudy,50,2013-08-08 19:35:00
2:55 PM,80.8,60.6,50,29.99,10.0,ENE,5.8,-,N/A,,Scattered Clouds,70,2013-08-08 19:55:00
3:15 PM,81.1,59.5,48,29.98,10.0,NE,6.9,-,N/A,,Scattered Clouds,50,2013-08-08 20:15:00
3:35 PM,81.0,60.1,49,29.98,10.0,North,5.8,-,N/A,,Scattered Clouds,350,2013-08-08 20:35:00
3:55 PM,81.7,59.7,47,29.98,10.0,NE,5.8,-,N/A,,Mostly Cloudy,50,2013-08-08 20:55:00
4:15 PM,82.0,59.7,47,29.98,10.0,NNE,4.6,-,N/A,,Scattered Clouds,30,2013-08-08 21:15:00
4:35 PM,79.0,60.1,52,29.98,10.0,ENE,5.8,-,N/A,,Scattered Clouds,70,2013-08-08 21:35:00
4:55 PM,78.8,59.9,52,29.98,10.0,NNE,4.6,-,N/A,,Clear,30,2013-08-08 21:55:00
5:15 PM,79.7,58.1,47,29.98,10.0,NNW,3.5,-,N/A,,Scattered Clouds,330,2013-08-08 22:15:00
5:35 PM,80.1,59.7,50,29.98,10.0,Calm,Calm,-,N/A,,Scattered Clouds,0,2013-08-08 22:35:00
5:55 PM,79.0,59.4,51,29.99,10.0,Calm,Calm,-,N/A,,Clear,0,2013-08-08 22:55:00
6:15 PM,79.3,59.5,51,29.99,10.0,Calm,Calm,-,N/A,,Clear,0,2013-08-08 23:15:00
6:35 PM,79.0,59.5,51,29.98,10.0,Calm,Calm,-,N/A,,Scattered Clouds,0,2013-08-08 23:35:00
6:55 PM,77.7,59.5,53,29.98,10.0,Calm,Calm,-,N/A,,Scattered Clouds,0,2013-08-08 23:55:00
7:15 PM,77.0,60.4,56,29.98,10.0,Calm,Calm,-,N/A,,Clear,0,2013-08-09 00:15:00
7:35 PM,76.3,61.7,60,29.99,10.0,Calm,Calm,-,N/A,,Clear,0,2013-08-09 00:35:00
7:55 PM,74.8,63.7,68,29.99,10.0,Calm,Calm,-,N/A,,Clear,0,2013-08-09 00:55:00
8:15 PM,73.6,64.2,72,29.99,10.0,Calm,Calm,-,N/A,,Clear,0,2013-08-09 01:15:00
8:35 PM,73.0,65.1,76,29.99,10.0,NE,3.5,-,N/A,,Clear,50,2013-08-09 01:35:00
8:55 PM,71.6,65.1,80,29.99,10.0,Calm,Calm,-,N/A,,Clear,0,2013-08-09 01:55:00
9:15 PM,69.6,63.9,82,29.99,10.0,NE,3.5,-,N/A,,Clear,50,2013-08-09 02:15:00
9:35 PM,70.2,64.4,82,29.99,10.0,NE,3.5,-,N/A,,Clear,40,2013-08-09 02:35:00
9:55 PM,69.8,63.0,79,30.00,10.0,Calm,Calm,-,N/A,,Clear,0,2013-08-09 02:55:00
10:15 PM,69.1,62.8,80,29.99,10.0,ENE,3.5,-,N/A,,Clear,70,2013-08-09 03:15:00
10:35 PM,68.2,62.8,83,29.99,10.0,Calm,Calm,-,N/A,,Clear,0,2013-08-09 03:35:00
10:55 PM,67.5,62.6,84,29.99,10.0,Calm,Calm,-,N/A,,Clear,0,2013-08-09 03:55:00
11:15 PM,67.6,62.6,84,30.00,10.0,Calm,Calm,-,N/A,,Clear,0,2013-08-09 04:15:00
11:35 PM,67.3,63.1,87,30.00,10.0,Calm,Calm,-,N/A,,Clear,0,2013-08-09 04:35:00
11:55 PM,67.1,63.0,87,30.01,10.0,Calm,Calm,-,N/A,,Clear,0,2013-08-09 04:55:00